Strona główna
METAR-TAF:

METAR-TAF

Lotnisko :

Chartum, Sudan

Port lotniczy Chartum

Szerokość geograficzna: 15-36N, Długość geograficzna: 032-33E, wysokość: 382 m

Aktualna obserwacja pogody

Raport powstał 19 minut temu, godzina 17:30 UTC
Wiatr 9 kt od północ
Temperatura 26°C
Wilgotność 26%
Ciśnienie 1012 hPa
Widzialność 10 km lub więcej
Brak chmur poniżej 1500 m i brak chmur cumulonimbus

METAR: HSSS 171730Z 01009KT CAVOK 26/05 Q1012 NOSIG

czas: 20:49 (17:49 UTC)

Prognoza

Raport powstał 49 minut temu, godzina 17:00 UTC
Prognoza ważna od 17 godzina 18 UTC do 18 godzina 24 UTC
Wiatr 8 kt od północ w porywach dochodzący do 18 kt
Widzialność 10 km lub więcej
Brak chmur poniżej 1500 m i brak chmur cumulonimbus
Przejściowo
od 18 godzina 03 UTC do 18 godzina 09 UTC
Widzialność: 6000 m

TAF: HSSS 171700Z 1718/1824 36008G18KT CAVOK TEMPO 1803/1809 6000

Obserwacja i prognoza pogody dla ponad 4000 lotnisk (raport METAR i TAF).

Dostępne stacje oznaczono żółtymi i czerwonymi punktami na mapie.

Najedź kursorem aby zobaczyć nazwę stacji.

Kliknij aby zobaczyć obserwacje i prognozy pogody.

Aby zmienić mapę: kliknij na zielony przycisk z czarnym krzyżykiem, aby powiększyć; na zielony przycisk z myślnikiem, aby pomniejszyć; na zielone strzałki, aby przejść do map sąsiednich.


METAR-TAF: